Time;durP1;ratioP1;P1;durP2;ratioP2;P2;SDS_P1;SDS_P2;PMS_P1;PMS_P2;Temp;Humidity;BMP_temperature;BMP_pressure;BME280_temperature;BME280_humidity;BME280_pressure;Samples;Min_cycle;Max_cycle;Signal;HPM_P1;HPM_P2
2023/10/30 00:00:58;;;;;;;10.60;1.67;;;12.40;99.90;;;;;;4915714;28;89442;-76
2023/10/30 00:03:24;;;;;;;11.40;1.25;;;12.40;99.90;;;;;;4914137;28;86712;-76
2023/10/30 00:05:50;;;;;;;12.52;1.63;;;12.40;99.90;;;;;;4915373;28;86412;-76
2023/10/30 00:08:16;;;;;;;11.10;1.65;;;12.30;99.90;;;;;;4916601;28;87103;-77
2023/10/30 00:10:42;;;;;;;6.70;0.90;;;12.30;99.90;;;;;;4914882;28;89834;-77
2023/10/30 00:13:08;;;;;;;9.90;2.00;;;12.40;99.90;;;;;;4914888;28;89600;-77
2023/10/30 00:15:34;;;;;;;9.95;1.70;;;12.30;99.90;;;;;;4913137;28;86840;-77
2023/10/30 00:17:59;;;;;;;18.13;1.67;;;12.30;99.90;;;;;;4914151;28;86269;-76
2023/10/30 00:20:25;;;;;;;16.13;1.38;;;12.40;99.90;;;;;;4913124;28;89966;-77
2023/10/30 00:22:51;;;;;;;10.18;1.38;;;12.30;99.90;;;;;;4914431;28;90221;-77
2023/10/30 00:25:16;;;;;;;12.68;1.48;;;12.40;99.90;;;;;;4917729;28;86530;-76
2023/10/30 00:27:42;;;;;;;10.90;1.38;;;12.40;99.90;;;;;;4912032;28;86062;-77
2023/10/30 00:30:09;;;;;;;7.25;1.40;;;12.40;99.90;;;;;;4910674;28;89218;-77
2023/10/30 00:32:37;;;;;;;9.20;1.13;;;12.40;99.90;;;;;;4917909;28;86744;-76
2023/10/30 00:35:05;;;;;;;5.78;0.93;;;12.40;99.90;;;;;;4918185;28;86282;-77
2023/10/30 00:37:31;;;;;;;12.32;1.65;;;12.40;99.90;;;;;;4914962;28;86511;-77
2023/10/30 00:39:57;;;;;;;9.15;1.55;;;12.40;99.90;;;;;;4909968;28;89009;-77
2023/10/30 00:42:26;;;;;;;11.02;1.63;;;12.40;99.90;;;;;;4911770;28;89703;-77
2023/10/30 00:44:51;;;;;;;10.20;1.23;;;12.40;99.90;;;;;;4915108;28;86863;-77
2023/10/30 00:47:17;;;;;;;7.50;1.10;;;12.40;99.90;;;;;;4911735;28;86608;-77
2023/10/30 00:49:43;;;;;;;12.70;1.20;;;12.40;99.90;;;;;;4916480;28;90648;-76
2023/10/30 00:52:08;;;;;;;7.82;1.17;;;12.40;99.90;;;;;;4912243;28;90066;-76
2023/10/30 00:54:34;;;;;;;12.07;1.50;;;12.40;99.90;;;;;;4910646;28;86757;-77
2023/10/30 00:57:00;;;;;;;10.85;1.33;;;12.40;99.90;;;;;;4913446;28;87183;-77
2023/10/30 00:59:26;;;;;;;7.55;1.50;;;12.30;99.90;;;;;;4913969;28;90637;-77
2023/10/30 01:01:51;;;;;;;12.85;1.02;;;12.30;99.90;;;;;;4916365;28;87165;-77
2023/10/30 01:04:17;;;;;;;14.13;1.50;;;12.40;99.90;;;;;;4913719;28;86134;-77
2023/10/30 01:06:43;;;;;;;11.23;1.20;;;12.30;99.90;;;;;;4915459;28;86906;-77
2023/10/30 01:09:08;;;;;;;9.75;1.30;;;12.30;99.90;;;;;;4912392;28;90591;-77
2023/10/30 01:11:34;;;;;;;9.07;1.05;;;12.40;99.90;;;;;;4911356;28;89410;-76
2023/10/30 01:14:00;;;;;;;9.63;1.20;;;12.30;99.90;;;;;;4928731;28;86173;-77
2023/10/30 01:16:25;;;;;;;6.45;1.02;;;12.30;99.90;;;;;;4913268;28;87321;-76
2023/10/30 01:18:54;;;;;;;9.75;0.88;;;12.30;99.90;;;;;;4916013;28;87514;-77
2023/10/30 01:21:20;;;;;;;13.00;1.48;;;12.30;99.90;;;;;;4914604;28;86430;-77
2023/10/30 01:23:46;;;;;;;12.75;1.98;;;12.30;99.90;;;;;;4915377;28;87099;-77
2023/10/30 01:26:20;;;;;;;4.35;0.80;;;12.30;99.90;;;;;;4913389;28;86931;-76
2023/10/30 01:28:49;;;;;;;8.52;1.77;;;12.30;99.90;;;;;;4911127;28;87374;-77
2023/10/30 01:31:14;;;;;;;15.93;2.42;;;12.30;99.90;;;;;;4916332;28;87011;-77
2023/10/30 01:33:40;;;;;;;12.40;1.20;;;12.30;99.90;;;;;;4916230;28;86720;-77
2023/10/30 01:36:06;;;;;;;13.30;1.45;;;12.30;99.90;;;;;;4915133;28;86465;-76
2023/10/30 01:38:32;;;;;;;10.98;1.42;;;12.30;99.90;;;;;;4909724;28;91213;-76
2023/10/30 01:40:57;;;;;;;9.63;1.27;;;12.30;99.90;;;;;;4916214;28;86641;-77
2023/10/30 01:43:30;;;;;;;11.65;1.55;;;12.30;99.90;;;;;;4913917;28;86360;-77
2023/10/30 01:45:56;;;;;;;9.52;1.60;;;12.30;99.90;;;;;;4912898;28;86214;-77
2023/10/30 01:48:23;;;;;;;10.48;1.48;;;12.30;99.90;;;;;;4903953;28;89282;-77
2023/10/30 01:50:53;;;;;;;7.68;1.25;;;12.30;99.90;;;;;;4911817;28;89895;-77
2023/10/30 01:53:20;;;;;;;8.90;1.60;;;12.30;99.90;;;;;;4961171;23;89406;-77
2023/10/30 01:55:47;;;;;;;12.90;1.90;;;12.30;99.90;;;;;;4929702;28;86903;-77
2023/10/30 01:58:13;;;;;;;8.85;1.05;;;12.30;99.90;;;;;;4927132;28;87405;-77
2023/10/30 02:00:39;;;;;;;6.82;0.90;;;12.30;99.90;;;;;;4926584;28;86803;-77
2023/10/30 02:03:05;;;;;;;10.00;1.27;;;12.30;99.90;;;;;;4930857;28;86061;-77
2023/10/30 02:05:31;;;;;;;9.70;1.10;;;12.30;99.90;;;;;;4933904;28;86725;-77
2023/10/30 02:08:00;;;;;;;8.13;1.05;;;12.30;99.90;;;;;;4935471;28;86551;-76
2023/10/30 02:10:26;;;;;;;7.90;1.55;;;12.30;99.90;;;;;;4934457;28;90373;-77
2023/10/30 02:12:52;;;;;;;10.65;1.63;;;12.30;99.90;;;;;;4930521;28;87125;-77
2023/10/30 02:15:18;;;;;;;9.57;1.20;;;12.30;99.90;;;;;;4935156;28;86731;-77
2023/10/30 02:17:44;;;;;;;6.18;1.00;;;12.30;99.90;;;;;;4938942;28;86963;-77
2023/10/30 02:20:13;;;;;;;8.80;1.33;;;12.30;99.90;;;;;;4932283;28;89350;-76
2023/10/30 02:22:42;;;;;;;8.57;1.35;;;12.30;99.90;;;;;;4936982;28;86943;-77
2023/10/30 02:25:08;;;;;;;14.65;1.25;;;12.30;99.90;;;;;;4931712;28;88029;-78
2023/10/30 02:27:33;;;;;;;9.55;1.10;;;12.20;99.90;;;;;;4935739;28;86734;-77
2023/10/30 02:29:59;;;;;;;8.85;1.05;;;12.20;99.90;;;;;;4936943;28;89823;-77
2023/10/30 02:32:25;;;;;;;7.50;0.90;;;12.30;99.90;;;;;;4935572;28;86588;-76
2023/10/30 02:34:51;;;;;;;8.30;1.00;;;12.20;99.90;;;;;;4933629;28;85823;-77
2023/10/30 02:37:16;;;;;;;12.05;1.48;;;12.20;99.90;;;;;;4930026;28;90553;-77
2023/10/30 02:39:42;;;;;;;8.50;1.75;;;12.20;99.90;;;;;;4928463;28;87114;-76
2023/10/30 02:42:08;;;;;;;11.02;1.67;;;12.20;99.90;;;;;;4933907;28;86492;-76
2023/10/30 02:44:34;;;;;;;7.45;0.95;;;12.20;99.90;;;;;;4934605;28;87048;-76
2023/10/30 02:47:02;;;;;;;10.32;1.40;;;12.10;99.90;;;;;;4934574;28;86511;-76
2023/10/30 02:49:28;;;;;;;9.48;1.20;;;12.10;99.90;;;;;;4930175;28;87408;-78
2023/10/30 02:51:54;;;;;;;11.15;1.40;;;12.10;99.90;;;;;;4928114;28;86630;-76
2023/10/30 02:54:19;;;;;;;8.60;1.02;;;12.10;99.90;;;;;;4929538;28;86771;-77
2023/10/30 02:56:45;;;;;;;6.93;1.00;;;12.10;99.90;;;;;;4931960;28;89307;-77
2023/10/30 02:59:11;;;;;;;15.27;1.58;;;12.10;99.90;;;;;;4931311;28;89625;-76
2023/10/30 03:01:37;;;;;;;8.35;1.58;;;12.00;99.90;;;;;;4930428;28;87044;-76
2023/10/30 03:04:03;;;;;;;14.60;1.65;;;12.00;99.90;;;;;;4933783;28;86667;-76
2023/10/30 03:06:28;;;;;;;10.77;1.70;;;12.00;99.90;;;;;;4933269;28;87566;-77
2023/10/30 03:08:54;;;;;;;5.55;1.10;;;12.00;99.90;;;;;;4928661;28;90625;-75
2023/10/30 03:11:20;;;;;;;13.23;1.23;;;11.90;99.90;;;;;;4930603;28;86634;-77
2023/10/30 03:13:46;;;;;;;9.38;1.05;;;11.90;99.90;;;;;;4944816;28;86595;-77
2023/10/30 03:16:11;;;;;;;12.80;1.63;;;11.90;99.90;;;;;;4929645;28;88115;-77
2023/10/30 03:18:38;;;;;;;13.10;1.40;;;11.90;99.90;;;;;;4931877;28;86823;-76
2023/10/30 03:21:04;;;;;;;9.00;1.30;;;11.90;99.90;;;;;;4928300;28;86733;-77
2023/10/30 03:23:29;;;;;;;8.45;1.35;;;11.90;99.90;;;;;;4935050;28;86780;-77
2023/10/30 03:25:55;;;;;;;11.98;1.90;;;11.80;99.90;;;;;;4934554;28;86969;-77
2023/10/30 03:28:20;;;;;;;13.75;1.08;;;11.80;99.90;;;;;;4934377;28;86645;-77
2023/10/30 03:30:46;;;;;;;12.73;1.33;;;11.80;99.90;;;;;;4933207;28;87449;-77
2023/10/30 03:33:12;;;;;;;8.95;2.20;;;11.80;99.90;;;;;;4932737;28;86482;-76
2023/10/30 03:35:39;;;;;;;8.52;1.15;;;11.80;99.90;;;;;;4931098;28;89079;-76
2023/10/30 03:38:05;;;;;;;9.13;1.48;;;11.80;99.90;;;;;;4932453;28;86704;-77
2023/10/30 03:40:31;;;;;;;9.40;1.33;;;11.80;99.90;;;;;;4930065;28;86712;-77
2023/10/30 03:42:56;;;;;;;9.75;1.30;;;11.80;99.90;;;;;;4932708;28;86923;-77
2023/10/30 03:45:22;;;;;;;9.00;1.23;;;11.80;99.90;;;;;;4929953;28;86880;-76
2023/10/30 03:47:48;;;;;;;9.27;1.33;;;11.70;99.90;;;;;;4930045;28;87069;-76
2023/10/30 03:50:14;;;;;;;9.95;1.98;;;11.70;99.90;;;;;;4930266;28;87014;-76
2023/10/30 03:52:40;;;;;;;10.70;1.45;;;11.70;99.90;;;;;;4927956;28;86435;-77
2023/10/30 03:55:06;;;;;;;10.77;1.83;;;11.70;99.90;;;;;;4928664;28;87175;-77
2023/10/30 03:57:32;;;;;;;9.57;1.15;;;11.70;99.90;;;;;;4932479;28;88899;-77
2023/10/30 03:59:58;;;;;;;7.57;1.30;;;11.70;99.90;;;;;;4925744;28;86773;-78
2023/10/30 04:02:24;;;;;;;14.63;1.63;;;11.70;99.90;;;;;;4930002;28;86981;-78
2023/10/30 04:04:49;;;;;;;11.63;1.42;;;11.70;99.90;;;;;;4930853;28;88663;-77
2023/10/30 04:07:15;;;;;;;11.70;1.73;;;11.60;99.90;;;;;;4930411;28;87611;-77
2023/10/30 04:09:41;;;;;;;9.60;1.10;;;11.60;99.90;;;;;;4934402;28;86657;-76
2023/10/30 04:12:07;;;;;;;11.27;1.23;;;11.60;99.90;;;;;;4933872;28;86891;-77
2023/10/30 04:14:32;;;;;;;15.18;1.70;;;11.60;99.90;;;;;;4933312;28;86189;-77
2023/10/30 04:16:58;;;;;;;12.25;1.38;;;11.60;99.90;;;;;;4931600;28;87506;-77
2023/10/30 04:19:24;;;;;;;12.75;1.42;;;11.60;99.90;;;;;;4931629;28;85905;-77
2023/10/30 04:21:50;;;;;;;14.23;1.58;;;11.50;99.90;;;;;;4930680;28;86935;-77
2023/10/30 04:24:15;;;;;;;11.38;1.80;;;11.50;99.90;;;;;;4932336;28;87019;-76
2023/10/30 04:26:41;;;;;;;13.90;1.52;;;11.50;99.90;;;;;;4928992;28;89617;-78
2023/10/30 04:29:06;;;;;;;21.02;1.88;;;11.50;99.90;;;;;;4931512;28;86160;-77
2023/10/30 04:31:32;;;;;;;9.52;1.33;;;11.50;99.90;;;;;;4932577;28;86663;-77
2023/10/30 04:33:58;;;;;;;12.57;1.08;;;11.40;99.90;;;;;;4934248;28;87492;-76
2023/10/30 04:36:24;;;;;;;13.10;1.55;;;11.40;99.90;;;;;;4930241;28;90215;-77
2023/10/30 04:38:52;;;;;;;11.48;1.55;;;11.40;99.90;;;;;;4933228;28;86616;-75
2023/10/30 04:41:18;;;;;;;9.02;1.15;;;11.40;99.90;;;;;;4928672;28;86362;-77
2023/10/30 04:43:43;;;;;;;8.05;1.27;;;11.40;99.90;;;;;;4932279;28;87172;-77
2023/10/30 04:46:09;;;;;;;13.27;1.50;;;11.30;99.90;;;;;;4930582;28;86957;-77
2023/10/30 04:48:34;;;;;;;13.98;1.30;;;11.30;99.90;;;;;;4929781;28;86585;-76
2023/10/30 04:51:20;;;;;;;10.65;1.83;;;11.30;99.90;;;;;;4924323;28;86606;-77
2023/10/30 04:53:46;;;;;;;10.00;1.40;;;11.20;99.90;;;;;;4930477;28;87046;-77
2023/10/30 04:56:11;;;;;;;18.63;1.73;;;11.20;99.90;;;;;;4929049;28;86619;-76
2023/10/30 04:58:37;;;;;;;10.27;1.60;;;11.20;99.90;;;;;;4930965;28;87048;-76
2023/10/30 05:01:09;;;;;;;12.57;1.33;;;11.20;99.90;;;;;;4929845;28;86874;-77
2023/10/30 05:03:39;;;;;;;17.10;1.90;;;11.10;99.90;;;;;;4929815;28;86939;-77
2023/10/30 05:06:06;;;;;;;15.32;1.63;;;11.10;99.90;;;;;;4926417;28;88243;-77
2023/10/30 05:08:35;;;;;;;8.57;1.02;;;11.10;99.90;;;;;;4934187;28;86372;-76
2023/10/30 05:11:03;;;;;;;13.32;2.03;;;11.10;99.90;;;;;;4930428;28;86519;-76
2023/10/30 05:13:29;;;;;;;7.25;1.10;;;11.00;99.90;;;;;;4928467;28;87225;-76
2023/10/30 05:15:57;;;;;;;10.57;1.27;;;11.00;99.90;;;;;;4936801;28;87988;-76
2023/10/30 05:18:30;;;;;;;10.32;1.75;;;11.00;99.90;;;;;;4930903;28;86625;-77
2023/10/30 05:20:55;;;;;;;11.23;1.77;;;11.00;99.90;;;;;;4926590;28;86980;-76
2023/10/30 05:23:21;;;;;;;10.25;1.83;;;10.90;99.90;;;;;;4927537;28;89984;-77
2023/10/30 05:25:54;;;;;;;10.70;1.83;;;10.90;99.90;;;;;;4916931;28;86391;-77
2023/10/30 05:28:19;;;;;;;13.15;1.63;;;10.90;99.90;;;;;;4931588;28;86880;-76
2023/10/30 05:30:45;;;;;;;15.32;1.25;;;10.90;99.90;;;;;;4926815;28;86493;-77
2023/10/30 05:33:11;;;;;;;11.45;1.17;;;10.80;99.90;;;;;;4937428;28;87174;-77
2023/10/30 05:35:36;;;;;;;9.85;1.15;;;10.80;99.90;;;;;;4928825;28;87738;-77
2023/10/30 05:38:05;;;;;;;11.80;1.40;;;10.80;99.90;;;;;;4930124;28;86377;-77
2023/10/30 05:40:30;;;;;;;14.40;1.55;;;10.70;99.90;;;;;;4928557;28;86754;-77
2023/10/30 05:42:56;;;;;;;9.40;1.42;;;10.70;99.90;;;;;;4928386;28;90573;-77
2023/10/30 05:45:42;;;;;;;13.95;1.88;;;10.70;99.90;;;;;;4934972;28;87023;-77
2023/10/30 05:48:07;;;;;;;12.88;1.60;;;10.70;99.90;;;;;;4928763;28;86863;-77
2023/10/30 05:50:33;;;;;;;11.75;1.45;;;10.70;99.90;;;;;;4930199;28;86830;-76
2023/10/30 05:53:01;;;;;;;8.43;1.20;;;10.70;99.90;;;;;;4934797;28;87563;-77
2023/10/30 05:55:27;;;;;;;8.52;2.10;;;10.70;99.90;;;;;;4936868;28;88414;-76
2023/10/30 05:57:53;;;;;;;14.02;1.42;;;10.70;99.90;;;;;;4935063;28;86127;-76
2023/10/30 06:00:18;;;;;;;7.70;1.60;;;10.70;99.90;;;;;;4923600;28;86333;-77
2023/10/30 06:02:44;;;;;;;12.63;1.27;;;10.60;99.90;;;;;;4929279;28;87932;-77
2023/10/30 06:05:14;;;;;;;15.02;1.50;;;10.60;99.90;;;;;;4925852;28;89290;-76
2023/10/30 06:07:41;;;;;;;9.55;1.17;;;10.60;99.90;;;;;;4930031;28;86415;-76
2023/10/30 06:10:10;;;;;;;11.68;1.48;;;10.60;99.90;;;;;;4929877;28;86651;-76
2023/10/30 06:12:35;;;;;;;7.82;1.55;;;10.60;99.90;;;;;;4931583;28;87106;-77
2023/10/30 06:15:01;;;;;;;12.65;1.45;;;10.60;99.90;;;;;;4931640;28;87009;-76
2023/10/30 06:17:26;;;;;;;14.35;1.45;;;10.60;99.90;;;;;;4933008;28;86507;-77
2023/10/30 06:19:52;;;;;;;15.07;1.48;;;10.60;99.90;;;;;;4930653;28;86828;-77
2023/10/30 06:22:18;;;;;;;12.80;1.75;;;10.70;99.90;;;;;;4932864;28;90121;-77
2023/10/30 06:24:44;;;;;;;15.52;1.55;;;10.70;99.90;;;;;;4935394;28;87071;-77
2023/10/30 06:27:09;;;;;;;12.90;1.35;;;10.70;99.90;;;;;;4927744;28;88249;-76
2023/10/30 06:29:35;;;;;;;8.35;1.35;;;10.70;99.90;;;;;;4929886;28;86870;-77
2023/10/30 06:32:02;;;;;;;15.60;1.60;;;10.70;99.90;;;;;;4933503;28;86839;-77
2023/10/30 06:34:28;;;;;;;16.45;2.45;;;10.70;99.90;;;;;;4933445;28;86883;-77
2023/10/30 06:36:53;;;;;;;10.93;1.58;;;10.80;99.90;;;;;;4933575;28;87264;-77
2023/10/30 06:39:20;;;;;;;12.32;1.52;;;10.80;99.90;;;;;;4935543;28;87286;-77
2023/10/30 06:41:54;;;;;;;11.23;2.13;;;10.80;99.90;;;;;;4930851;28;87622;-77
2023/10/30 06:44:20;;;;;;;10.80;1.60;;;10.80;99.90;;;;;;4933944;28;87674;-77
2023/10/30 06:46:50;;;;;;;9.48;1.52;;;10.90;99.90;;;;;;4933021;28;86905;-76
2023/10/30 06:49:16;;;;;;;9.55;1.20;;;10.90;99.90;;;;;;4930305;28;87266;-75
2023/10/30 06:51:42;;;;;;;13.32;1.55;;;10.90;99.90;;;;;;4929636;28;87412;-76
2023/10/30 06:54:12;;;;;;;8.43;2.00;;;11.00;99.90;;;;;;4928660;28;90485;-76
2023/10/30 06:56:38;;;;;;;13.88;2.03;;;11.00;99.90;;;;;;4931363;28;86438;-75
2023/10/30 06:59:09;;;;;;;11.25;1.85;;;11.00;99.90;;;;;;4927606;28;87227;-76
2023/10/30 07:01:45;;;;;;;13.63;2.03;;;11.10;99.90;;;;;;4928909;28;87444;-75
2023/10/30 07:04:11;;;;;;;9.20;1.10;;;11.10;99.90;;;;;;4927929;28;87611;-73
2023/10/30 07:06:38;;;;;;;13.98;1.20;;;11.10;99.90;;;;;;4926433;28;86328;-77
2023/10/30 07:09:07;;;;;;;9.45;1.20;;;11.20;99.90;;;;;;4934630;28;86513;-77
2023/10/30 07:11:36;;;;;;;10.43;1.40;;;11.20;99.90;;;;;;4925628;28;86603;-77
2023/10/30 07:14:09;;;;;;;9.80;1.52;;;11.20;99.90;;;;;;4926184;28;86604;-76
2023/10/30 07:16:35;;;;;;;10.68;1.52;;;11.40;99.90;;;;;;4923645;28;86692;-74
2023/10/30 07:19:02;;;;;;;9.05;1.33;;;11.40;99.90;;;;;;4930901;28;86430;-75
2023/10/30 07:21:28;;;;;;;12.70;2.03;;;11.40;99.90;;;;;;4932403;28;88001;-77
2023/10/30 07:23:57;;;;;;;9.90;2.53;;;11.50;99.90;;;;;;4928344;28;86557;-73
2023/10/30 07:26:24;;;;;;;11.43;2.40;;;11.50;99.90;;;;;;4949939;28;86511;-75
2023/10/30 07:28:53;;;;;;;13.35;2.00;;;11.60;99.90;;;;;;4929715;28;87191;-76
2023/10/30 07:31:19;;;;;;;16.02;2.75;;;11.70;99.90;;;;;;4927826;28;90144;-76
2023/10/30 07:33:45;;;;;;;11.45;1.90;;;11.80;99.90;;;;;;4926380;28;87077;-76
2023/10/30 07:36:11;;;;;;;7.97;1.83;;;11.80;99.90;;;;;;4928788;28;86553;-76
2023/10/30 07:38:37;;;;;;;14.25;2.00;;;11.80;99.90;;;;;;4931191;28;86926;-73
2023/10/30 07:41:03;;;;;;;14.55;2.28;;;11.90;99.90;;;;;;4928844;28;87406;-75
2023/10/30 07:43:29;;;;;;;8.07;1.90;;;11.90;99.90;;;;;;4929186;28;86850;-74
2023/10/30 07:45:56;;;;;;;8.13;1.63;;;12.00;99.90;;;;;;4927473;28;86574;-75
2023/10/30 07:48:22;;;;;;;15.32;2.22;;;12.00;99.90;;;;;;4932978;28;86374;-77
2023/10/30 07:50:48;;;;;;;11.18;1.75;;;12.00;99.90;;;;;;4927765;28;86492;-78
2023/10/30 07:53:14;;;;;;;17.38;1.88;;;12.10;99.90;;;;;;4932227;28;87198;-76
2023/10/30 07:55:40;;;;;;;17.55;2.58;;;12.10;99.90;;;;;;4948257;28;86713;-75
2023/10/30 07:58:06;;;;;;;12.23;2.15;;;12.10;99.90;;;;;;4943352;28;86512;-75
2023/10/30 08:00:35;;;;;;;10.55;1.45;;;12.10;99.90;;;;;;4935606;28;87545;-76
2023/10/30 08:03:00;;;;;;;7.97;2.15;;;12.20;99.90;;;;;;4934814;28;88125;-79
2023/10/30 08:05:27;;;;;;;9.93;1.80;;;12.20;99.90;;;;;;4931594;28;86712;-78
2023/10/30 08:07:53;;;;;;;8.48;1.65;;;12.20;99.90;;;;;;4905994;28;86663;-77
2023/10/30 08:10:19;;;;;;;10.95;2.45;;;12.30;99.90;;;;;;4927420;28;89457;-77
2023/10/30 08:12:45;;;;;;;11.32;1.52;;;12.30;99.90;;;;;;4930444;28;89303;-75
2023/10/30 08:15:10;;;;;;;12.38;1.92;;;12.30;99.90;;;;;;4931816;28;86497;-76
2023/10/30 08:17:36;;;;;;;8.38;1.90;;;12.40;99.90;;;;;;4929915;28;87303;-77
2023/10/30 08:20:03;;;;;;;7.75;1.17;;;12.40;99.90;;;;;;4930375;28;89639;-77
2023/10/30 08:22:30;;;;;;;10.95;1.70;;;12.50;99.90;;;;;;4928669;28;90798;-77
2023/10/30 08:24:55;;;;;;;10.38;2.00;;;12.50;99.90;;;;;;4931687;28;86857;-76
2023/10/30 08:27:22;;;;;;;9.65;1.70;;;12.60;99.90;;;;;;4929545;28;86592;-77
2023/10/30 08:29:48;;;;;;;10.98;1.60;;;12.60;99.90;;;;;;4928535;28;88220;-76
2023/10/30 08:32:15;;;;;;;10.55;1.55;;;12.70;99.90;;;;;;4930336;28;89690;-77
2023/10/30 08:34:40;;;;;;;4.32;1.27;;;12.70;99.90;;;;;;4925240;28;86571;-77
2023/10/30 08:37:06;;;;;;;11.02;1.83;;;12.80;99.90;;;;;;4932000;28;86680;-77
2023/10/30 08:39:32;;;;;;;13.57;1.63;;;12.80;99.90;;;;;;4938572;28;86789;-77
2023/10/30 08:41:57;;;;;;;12.95;1.73;;;12.90;99.90;;;;;;4924518;28;87115;-76
2023/10/30 08:44:24;;;;;;;6.18;1.27;;;13.00;99.90;;;;;;4931600;28;86573;-77
2023/10/30 08:46:50;;;;;;;5.88;1.10;;;13.00;99.90;;;;;;4925574;28;87116;-77
2023/10/30 08:49:16;;;;;;;5.57;1.23;;;13.10;99.90;;;;;;4927098;28;88967;-77
2023/10/30 08:51:43;;;;;;;10.90;1.75;;;13.10;99.90;;;;;;4926117;28;89482;-76
2023/10/30 08:54:09;;;;;;;6.53;1.25;;;13.20;99.90;;;;;;4928298;28;87121;-78
2023/10/30 08:56:36;;;;;;;6.32;1.25;;;13.20;99.90;;;;;;4935078;28;86564;-77
2023/10/30 08:59:03;;;;;;;8.50;1.15;;;13.30;99.90;;;;;;4934759;28;87135;-76
2023/10/30 09:01:31;;;;;;;9.07;1.52;;;13.30;99.90;;;;;;4923355;28;88870;-78
2023/10/30 09:03:57;;;;;;;9.20;1.00;;;13.40;99.90;;;;;;4932873;28;86289;-77
2023/10/30 09:06:26;;;;;;;9.35;1.50;;;13.40;99.90;;;;;;4928123;28;86817;-76
2023/10/30 09:08:55;;;;;;;11.13;1.83;;;13.40;99.90;;;;;;4930207;28;87015;-76
2023/10/30 09:11:22;;;;;;;11.60;1.40;;;13.50;99.90;;;;;;4934065;28;87136;-76
2023/10/30 09:13:47;;;;;;;8.55;1.25;;;13.50;99.90;;;;;;4927928;28;86668;-77
2023/10/30 09:16:13;;;;;;;12.13;1.25;;;13.50;99.90;;;;;;4928207;28;86436;-77
2023/10/30 09:18:39;;;;;;;8.27;1.30;;;13.60;99.90;;;;;;4926525;28;86976;-76
2023/10/30 09:21:08;;;;;;;8.85;0.77;;;13.60;99.90;;;;;;4928936;28;90101;-77
2023/10/30 09:23:33;;;;;;;6.85;1.10;;;13.70;99.90;;;;;;4923742;28;87001;-77
2023/10/30 09:26:03;;;;;;;8.60;1.20;;;13.70;99.90;;;;;;4933128;28;86125;-76
2023/10/30 09:28:28;;;;;;;4.38;0.70;;;13.70;99.90;;;;;;4934757;28;87255;-76
2023/10/30 09:30:54;;;;;;;9.40;1.30;;;13.80;99.90;;;;;;4933509;28;86562;-77
2023/10/30 09:33:20;;;;;;;10.20;0.93;;;13.80;99.90;;;;;;4933070;28;86813;-77
2023/10/30 09:35:46;;;;;;;7.55;1.13;;;13.90;99.90;;;;;;4924565;28;86164;-76
2023/10/30 09:38:12;;;;;;;6.95;1.08;;;13.90;99.90;;;;;;4928469;28;89713;-77
2023/10/30 09:40:40;;;;;;;9.32;1.30;;;14.00;99.90;;;;;;4927497;28;90061;-76
2023/10/30 09:43:09;;;;;;;4.55;0.70;;;14.10;99.90;;;;;;4926680;28;86794;-76
2023/10/30 09:45:36;;;;;;;8.55;1.38;;;14.20;99.90;;;;;;4929805;28;86231;-77
2023/10/30 09:48:03;;;;;;;10.75;1.17;;;14.30;99.90;;;;;;4925101;28;90929;-77
2023/10/30 09:50:30;;;;;;;5.03;1.02;;;14.40;99.90;;;;;;4930373;28;90038;-77
2023/10/30 09:53:00;;;;;;;5.35;0.70;;;14.50;99.90;;;;;;4928495;28;86495;-77
2023/10/30 09:55:27;;;;;;;2.80;0.80;;;14.60;99.90;;;;;;4929326;28;86370;-77
2023/10/30 09:57:53;;;;;;;6.30;0.73;;;14.60;99.90;;;;;;4934559;28;87445;-78
2023/10/30 10:00:20;;;;;;;4.90;0.80;;;14.70;99.90;;;;;;4932101;28;86943;-76
2023/10/30 10:02:48;;;;;;;3.47;0.90;;;14.80;99.90;;;;;;4933716;28;86404;-77
2023/10/30 10:05:16;;;;;;;9.55;0.90;;;14.80;99.90;;;;;;4945672;28;86302;-77
2023/10/30 10:07:42;;;;;;;4.90;1.10;;;14.70;99.90;;;;;;4929891;28;87080;-77
2023/10/30 10:10:08;;;;;;;8.13;0.80;;;14.70;99.90;;;;;;4932063;28;87333;-77
2023/10/30 10:12:35;;;;;;;6.18;0.55;;;14.70;99.90;;;;;;4930230;28;86326;-76
2023/10/30 10:15:08;;;;;;;6.72;0.98;;;14.80;99.90;;;;;;4928003;28;86386;-79
2023/10/30 10:17:48;;;;;;;3.00;1.13;;;14.80;99.90;;;;;;4928621;28;89575;-76
2023/10/30 10:20:14;;;;;;;5.00;0.70;;;14.80;99.90;;;;;;4929605;28;87189;-77
2023/10/30 10:22:40;;;;;;;6.50;1.10;;;14.80;99.90;;;;;;4930940;28;86285;-77
2023/10/30 10:25:10;;;;;;;5.30;1.10;;;14.90;99.90;;;;;;4931436;28;86779;-77
2023/10/30 10:27:37;;;;;;;5.43;0.98;;;14.90;99.90;;;;;;4931784;28;89971;-77
2023/10/30 10:30:06;;;;;;;7.97;1.00;;;14.90;99.90;;;;;;4938056;28;86344;-77
2023/10/30 10:32:42;;;;;;;3.85;0.70;;;14.80;99.90;;;;;;4934875;28;87318;-77
2023/10/30 10:35:09;;;;;;;3.08;0.70;;;14.80;99.90;;;;;;4936047;28;88802;-76
2023/10/30 10:37:34;;;;;;;1.90;0.65;;;14.80;99.90;;;;;;4933052;28;88189;-76
2023/10/30 10:40:01;;;;;;;2.13;0.60;;;14.70;99.90;;;;;;4933982;28;87185;-77
2023/10/30 10:42:30;;;;;;;3.15;0.73;;;14.70;99.90;;;;;;4930582;28;85833;-77
2023/10/30 10:44:57;;;;;;;4.30;0.60;;;14.70;99.90;;;;;;4934655;28;86592;-77
2023/10/30 10:47:23;;;;;;;6.20;0.50;;;14.70;99.90;;;;;;4934957;28;87376;-77
2023/10/30 10:49:49;;;;;;;5.88;0.55;;;14.80;99.90;;;;;;4937361;28;86690;-77
2023/10/30 10:52:19;;;;;;;4.13;0.70;;;14.80;99.90;;;;;;4936276;28;86589;-76
2023/10/30 10:54:50;;;;;;;4.50;0.70;;;14.80;99.90;;;;;;4941226;28;86583;-76
2023/10/30 10:57:18;;;;;;;3.05;1.25;;;14.80;99.90;;;;;;4940158;28;87003;-76
2023/10/30 10:59:47;;;;;;;4.57;0.77;;;14.80;99.90;;;;;;4942423;28;86547;-76
2023/10/30 11:02:21;;;;;;;2.40;0.30;;;14.80;99.90;;;;;;4942047;28;86601;-76
2023/10/30 11:04:51;;;;;;;4.00;0.50;;;14.70;99.90;;;;;;4936088;28;86449;-76
2023/10/30 11:07:52;;;;;;;5.35;1.05;;;14.70;99.90;;;;;;4938929;28;89343;-76
2023/10/30 11:10:25;;;;;;;3.60;0.43;;;14.70;99.90;;;;;;4930544;28;88839;-76
2023/10/30 11:13:05;;;;;;;9.07;1.40;;;14.70;99.90;;;;;;4942729;28;87366;-76
2023/10/30 11:15:37;;;;;;;2.53;0.57;;;14.70;99.90;;;;;;4937278;28;86345;-77
2023/10/30 11:18:18;;;;;;;1.70;0.50;;;14.70;99.90;;;;;;4932591;28;87534;-76
2023/10/30 11:20:45;;;;;;;4.00;0.60;;;14.70;99.90;;;;;;4932038;28;87876;-77
2023/10/30 11:23:15;;;;;;;1.25;0.40;;;14.80;99.90;;;;;;4933551;28;86642;-77
2023/10/30 11:25:43;;;;;;;1.55;0.50;;;14.80;99.90;;;;;;4935008;28;87281;-77
2023/10/30 11:28:09;;;;;;;2.22;0.63;;;14.90;99.90;;;;;;4930656;28;89505;-77
2023/10/30 11:30:42;;;;;;;1.05;0.43;;;15.00;99.90;;;;;;4932251;28;89687;-77
2023/10/30 11:33:26;;;;;;;4.10;0.85;;;15.10;99.90;;;;;;4935613;28;87073;-77
2023/10/30 11:36:14;;;;;;;1.83;0.70;;;15.10;99.90;;;;;;4935504;28;87046;-77
2023/10/30 11:38:52;;;;;;;2.80;0.68;;;15.10;99.90;;;;;;4926555;28;87107;-77
2023/10/30 11:41:18;;;;;;;3.38;0.50;;;15.20;99.90;;;;;;4928783;28;90442;-77
2023/10/30 11:43:45;;;;;;;1.38;0.43;;;15.20;99.90;;;;;;4935423;28;86068;-76
2023/10/30 11:46:16;;;;;;;1.35;0.30;;;15.20;99.90;;;;;;4931545;28;86335;-77
2023/10/30 11:48:41;;;;;;;2.50;0.80;;;15.20;99.90;;;;;;4928619;28;89324;-77
2023/10/30 11:51:08;;;;;;;1.20;0.40;;;15.20;99.90;;;;;;4932371;28;88371;-77
2023/10/30 11:53:34;;;;;;;0.93;0.30;;;15.30;99.90;;;;;;4934800;28;86753;-77
2023/10/30 11:56:01;;;;;;;5.43;0.47;;;15.30;99.90;;;;;;4932116;28;86464;-77
2023/10/30 11:58:28;;;;;;;2.30;0.50;;;15.30;99.90;;;;;;4938530;28;86504;-77
2023/10/30 12:00:59;;;;;;;3.28;0.50;;;15.20;99.90;;;;;;4933907;28;86681;-77
2023/10/30 12:03:25;;;;;;;1.67;0.35;;;15.30;99.90;;;;;;4932667;28;86998;-77
2023/10/30 12:05:51;;;;;;;1.58;0.60;;;15.30;99.90;;;;;;4933521;28;87052;-77
2023/10/30 12:08:17;;;;;;;1.98;0.52;;;15.30;99.90;;;;;;4936492;28;87670;-77
2023/10/30 12:10:48;;;;;;;2.85;0.63;;;15.30;99.90;;;;;;4931416;28;86715;-77
2023/10/30 12:13:13;;;;;;;1.67;0.50;;;15.30;99.90;;;;;;4929714;28;85970;-77
2023/10/30 12:15:40;;;;;;;3.88;0.50;;;15.30;99.90;;;;;;4934226;28;85917;-77
2023/10/30 12:18:06;;;;;;;4.13;0.85;;;15.30;99.90;;;;;;4937832;28;86621;-78
2023/10/30 12:20:32;;;;;;;3.88;0.80;;;15.30;99.90;;;;;;4935113;28;89596;-77
2023/10/30 12:22:58;;;;;;;2.10;0.60;;;15.30;99.90;;;;;;4931699;28;90233;-77
2023/10/30 12:25:24;;;;;;;2.92;0.70;;;15.30;99.90;;;;;;4932140;28;86850;-77
2023/10/30 12:27:50;;;;;;;3.38;0.68;;;15.30;99.90;;;;;;4932126;28;88363;-77
2023/10/30 12:30:17;;;;;;;2.92;0.40;;;15.30;99.90;;;;;;4933978;28;87294;-77
2023/10/30 12:32:53;;;;;;;1.23;0.40;;;15.30;99.90;;;;;;4930393;28;86574;-77
2023/10/30 12:35:19;;;;;;;2.28;0.55;;;15.30;99.90;;;;;;4927487;28;86904;-77
2023/10/30 12:37:44;;;;;;;1.98;0.70;;;15.40;99.90;;;;;;4928816;28;90686;-77
2023/10/30 12:40:14;;;;;;;3.00;0.60;;;15.40;99.90;;;;;;4933591;28;86648;-77
2023/10/30 12:42:41;;;;;;;1.42;0.70;;;15.40;99.90;;;;;;4932769;28;86483;-77